Overgaard, Arizona
Current Conditions -  °F | °C
As of 4:15 PM on Wednesday 17 Dec 2014 (Local Time) from KSOW Reporting Station
Broken Clouds Broken Clouds  
Wind Chill: 22°   Ceiling: 10000
Heat Index: 32°   Visibility: 10mi
Dew Point: 30°   Wind: 15mph
Humidity: 93%   Direction: 200°SSW
Pressure: 30.07"   Gusts: 22mph
Location:  34.39°N, 110.55°W
Report Text: KSOW 172315Z AUTO 20013G19KT 10SM SCT016 SCT021 BKN100 00/M01 A3007 RMK AO2
Loading
Personal Weather Stations






























Interactive Weather Map New forecast layout! Learn more

10-Day Weather Forecast

Advertisements
Track Severe Weather on mobile